Time;durP1;ratioP1;P1;durP2;ratioP2;P2;SDS_P1;SDS_P2;PMS_P1;PMS_P2;Temp;Humidity;BMP_temperature;BMP_pressure;BME280_temperature;BME280_humidity;BME280_pressure;Samples;Min_cycle;Max_cycle;Signal;HPM_P1;HPM_P2
2021/06/04 00:00:32;;;;;;;1.63;1.40;;;23.40;58.20;;;;;;5012014;28;20026;-39
2021/06/04 00:03:00;;;;;;;2.15;1.45;;;23.40;58.20;;;;;;5003619;28;20086;-39
2021/06/04 00:05:33;;;;;;;3.03;1.55;;;23.40;58.20;;;;;;5011501;28;20037;-39
2021/06/04 00:08:08;;;;;;;2.63;1.58;;;23.40;58.20;;;;;;5013574;28;20034;-38
2021/06/04 00:10:47;;;;;;;2.05;1.40;;;23.40;58.20;;;;;;5014200;28;20029;-39
2021/06/04 00:13:28;;;;;;;1.33;1.17;;;23.40;58.30;;;;;;5008505;28;20033;-38
2021/06/04 00:16:18;;;;;;;2.55;1.75;;;23.40;58.30;;;;;;5015003;28;20030;-38
2021/06/04 00:18:48;;;;;;;2.83;1.50;;;23.40;58.30;;;;;;5018673;28;20470;-38
2021/06/04 00:21:33;;;;;;;2.63;1.65;;;23.40;58.30;;;;;;5022944;28;20041;-39
2021/06/04 00:24:16;;;;;;;;;;;;;;;;;;;;;
2021/06/04 00:26:48;;;;;;;1.73;1.27;;;23.40;58.10;;;;;;5013728;28;20049;-39
2021/06/04 00:29:25;;;;;;;1.92;1.55;;;23.40;58.10;;;;;;5015032;28;20021;-38
2021/06/04 00:31:53;;;;;;;2.47;1.58;;;23.40;58.20;;;;;;5013994;28;20052;-38
2021/06/04 00:34:20;;;;;;;2.85;1.70;;;23.40;58.10;;;;;;5013157;28;20060;-39
2021/06/04 00:36:52;;;;;;;2.33;1.40;;;23.40;58.20;;;;;;5013703;28;20468;-38
2021/06/04 00:39:37;;;;;;;;;;;23.40;58.10;;;;;;5014617;28;20030;-38
2021/06/04 00:42:17;;;;;;;1.98;1.50;;;23.40;58.10;;;;;;5014000;28;19987;-38
2021/06/04 00:44:56;;;;;;;1.80;1.58;;;23.40;58.10;;;;;;5013695;28;20026;-39
2021/06/04 00:47:25;;;;;;;2.42;1.88;;;23.40;58.10;;;;;;5014831;28;20068;-38
2021/06/04 00:49:57;;;;;;;2.50;1.55;;;23.40;58.10;;;;;;5013754;28;20044;-38
2021/06/04 00:52:26;;;;;;;;;;;23.40;58.20;;;;;;5015069;28;20123;-38
2021/06/04 00:55:00;;;;;;;2.55;1.65;;;23.40;58.20;;;;;;5013381;28;19928;-39
2021/06/04 00:57:29;;;;;;;2.05;1.73;;;23.40;58.20;;;;;;5014413;28;20383;-38
2021/06/04 01:00:35;;;;;;;3.80;1.90;;;23.40;58.20;;;;;;5013786;28;20025;-38
2021/06/04 01:03:12;;;;;;;5.75;1.70;;;23.40;58.20;;;;;;5009881;28;20069;-39
2021/06/04 01:05:42;;;;;;;2.03;1.50;;;23.40;58.20;;;;;;5013165;28;20509;-40
2021/06/04 01:08:47;;;;;;;2.17;1.35;;;23.40;58.20;;;;;;5014129;28;20080;-38
2021/06/04 01:11:50;;;;;;;2.00;1.45;;;23.40;58.20;;;;;;5004729;28;20036;-39
2021/06/04 01:14:21;;;;;;;2.53;1.60;;;23.30;58.20;;;;;;5004759;28;20040;-39
2021/06/04 01:17:34;;;;;;;2.10;1.63;;;23.30;58.10;;;;;;5013053;28;20026;-38
2021/06/04 01:20:30;;;;;;;4.05;2.15;;;23.30;58.20;;;;;;5006686;28;20029;-38
2021/06/04 01:23:20;;;;;;;2.35;1.55;;;23.30;58.10;;;;;;5045161;28;20050;-38
2021/06/04 01:26:37;;;;;;;3.20;1.60;;;23.30;58.00;;;;;;5012538;28;20064;-39
2021/06/04 01:29:36;;;;;;;3.63;1.70;;;23.40;58.20;;;;;;5010379;28;20050;-40
2021/06/04 01:32:17;;;;;;;3.35;1.60;;;23.40;58.10;;;;;;5007047;28;20096;-39
2021/06/04 01:34:58;;;;;;;2.70;1.80;;;23.40;58.20;;;;;;5012771;28;20758;-38
2021/06/04 01:37:31;;;;;;;3.78;1.67;;;23.40;58.10;;;;;;5013428;28;20294;-39
2021/06/04 01:40:05;;;;;;;1.40;1.27;;;23.30;58.10;;;;;;5013266;28;20026;-39
2021/06/04 01:42:47;;;;;;;2.05;1.75;;;23.30;58.10;;;;;;5013124;28;20046;-41
2021/06/04 01:45:34;;;;;;;2.40;1.70;;;23.40;58.20;;;;;;5013430;28;20044;-38
2021/06/04 01:48:21;;;;;;;3.33;1.58;;;23.40;58.10;;;;;;5013596;28;20033;-38
2021/06/04 01:50:57;;;;;;;2.75;1.67;;;23.30;58.20;;;;;;5012024;28;20050;-38
2021/06/04 01:53:36;;;;;;;2.13;1.77;;;23.30;58.20;;;;;;5013255;28;20065;-38
2021/06/04 01:56:18;;;;;;;2.78;1.63;;;23.30;58.10;;;;;;5005253;28;20030;-39
2021/06/04 01:59:01;;;;;;;;;;;23.30;58.20;;;;;;5012607;28;20513;-39
2021/06/04 02:01:49;;;;;;;2.55;1.90;;;23.30;58.20;;;;;;5012649;28;20029;-38
2021/06/04 02:04:25;;;;;;;2.65;1.40;;;23.30;58.20;;;;;;5012646;28;20034;-38
2021/06/04 02:06:54;;;;;;;2.70;1.73;;;23.30;58.20;;;;;;5007387;28;20116;-39
2021/06/04 02:09:23;;;;;;;2.47;1.65;;;23.30;58.20;;;;;;5001769;28;20031;-38
2021/06/04 02:11:54;;;;;;;4.25;1.92;;;23.30;58.20;;;;;;5006652;28;20120;-39
2021/06/04 02:14:35;;;;;;;2.28;1.67;;;23.30;58.10;;;;;;5031368;28;20032;-39
2021/06/04 02:17:40;;;;;;;2.20;1.50;;;23.30;58.10;;;;;;5004802;28;20476;-39
2021/06/04 02:20:44;;;;;;;2.10;1.55;;;23.30;58.10;;;;;;5006321;28;20026;-39
2021/06/04 02:23:36;;;;;;;1.77;1.52;;;23.30;58.00;;;;;;4948491;29;20078;-41
2021/06/04 02:26:28;;;;;;;2.53;1.83;;;23.30;58.10;;;;;;5009312;28;20505;-39
2021/06/04 02:28:59;;;;;;;3.28;1.80;;;23.20;58.30;;;;;;4999020;28;20034;-38
2021/06/04 02:31:39;;;;;;;3.37;2.20;;;23.10;58.50;;;;;;5006103;28;20092;-39
2021/06/04 02:34:33;;;;;;;4.68;2.33;;;23.10;58.40;;;;;;5034837;28;20392;-39
2021/06/04 02:37:09;;;;;;;1.98;1.30;;;23.20;58.40;;;;;;5010172;28;20104;-39
2021/06/04 02:39:51;;;;;;;3.75;1.70;;;23.20;58.30;;;;;;5004020;28;20117;-41
2021/06/04 02:42:29;;;;;;;3.78;1.48;;;23.20;58.20;;;;;;5011322;28;20030;-39
2021/06/04 02:45:20;;;;;;;4.70;1.75;;;23.20;58.30;;;;;;5011447;28;20030;-40
2021/06/04 02:47:52;;;;;;;5.03;2.00;;;23.10;58.50;;;;;;5003482;28;20522;-39
2021/06/04 02:50:39;;;;;;;3.15;2.05;;;23.10;58.50;;;;;;5012193;28;20026;-39
2021/06/04 02:53:22;;;;;;;2.42;1.70;;;23.10;58.50;;;;;;5012147;28;20111;-39
2021/06/04 02:56:42;;;;;;;2.53;1.70;;;23.10;58.60;;;;;;5011399;28;20030;-38
2021/06/04 02:59:20;;;;;;;3.30;1.98;;;23.10;58.40;;;;;;4989984;28;20038;-39
2021/06/04 03:02:17;;;;;;;3.72;1.85;;;23.20;58.50;;;;;;5010913;28;20041;-39
2021/06/04 03:05:00;;;;;;;2.67;1.83;;;23.10;58.40;;;;;;5009035;28;20046;-39
2021/06/04 03:07:29;;;;;;;5.35;1.80;;;23.10;58.60;;;;;;5009813;28;20041;-39
2021/06/04 03:10:24;;;;;;;;;;;;;;;;;;;;;
2021/06/04 03:12:53;;;;;;;3.25;1.95;;;23.20;58.40;;;;;;5011272;28;20034;-39
2021/06/04 03:15:48;;;;;;;1.95;1.75;;;23.20;58.20;;;;;;5011579;28;20471;-39
2021/06/04 03:18:48;;;;;;;2.50;2.10;;;23.30;58.20;;;;;;5009608;28;20053;-38
2021/06/04 03:21:27;;;;;;;2.72;2.03;;;23.30;58.20;;;;;;5004493;28;20475;-39
2021/06/04 03:24:03;;;;;;;4.07;2.20;;;23.30;58.10;;;;;;5009852;28;20030;-38
2021/06/04 03:26:31;;;;;;;3.72;1.80;;;23.20;58.10;;;;;;5011820;28;20391;-39
2021/06/04 03:29:01;;;;;;;2.25;1.70;;;23.20;58.20;;;;;;5010661;28;20471;-40
2021/06/04 03:31:33;;;;;;;2.88;1.90;;;23.20;58.20;;;;;;5011206;28;20053;-39
2021/06/04 03:34:04;;;;;;;2.22;1.80;;;23.20;58.20;;;;;;5010967;28;20048;-39
2021/06/04 03:36:41;;;;;;;2.70;1.77;;;23.30;58.20;;;;;;5026440;28;20104;-39
2021/06/04 03:39:16;;;;;;;1.90;1.80;;;23.30;58.20;;;;;;5046315;28;20033;-39
2021/06/04 03:41:47;;;;;;;2.10;1.60;;;23.30;58.20;;;;;;5016868;28;20092;-39
2021/06/04 03:44:29;;;;;;;2.90;2.63;;;23.30;58.20;;;;;;5015684;28;20038;-38
2021/06/04 03:47:00;;;;;;;4.95;2.10;;;23.30;58.20;;;;;;5014585;28;20106;-38
2021/06/04 03:49:40;;;;;;;2.53;1.83;;;23.30;58.10;;;;;;5015241;28;20026;-38
2021/06/04 03:52:10;;;;;;;2.53;1.80;;;23.30;58.10;;;;;;5013917;28;20046;-39
2021/06/04 03:54:40;;;;;;;1.90;1.70;;;23.30;58.10;;;;;;5014656;28;20475;-41
2021/06/04 03:57:09;;;;;;;2.10;1.90;;;23.30;58.10;;;;;;5015475;28;20480;-38
2021/06/04 03:59:35;;;;;;;3.33;2.00;;;23.30;58.10;;;;;;5015041;28;20105;-41
2021/06/04 04:02:06;;;;;;;2.55;1.90;;;23.30;58.10;;;;;;5014427;28;20073;-38
2021/06/04 04:04:32;;;;;;;2.20;1.98;;;23.30;58.10;;;;;;5014143;28;20108;-38
2021/06/04 04:06:58;;;;;;;3.35;1.75;;;23.30;58.20;;;;;;5014273;28;20777;-39
2021/06/04 04:09:24;;;;;;;2.20;1.80;;;23.30;58.20;;;;;;5014981;28;20033;-40
2021/06/04 04:11:52;;;;;;;2.30;2.05;;;23.30;58.20;;;;;;5006110;28;20037;-39
2021/06/04 04:14:19;;;;;;;2.30;1.80;;;23.30;58.30;;;;;;5014781;28;20479;-39
2021/06/04 04:16:46;;;;;;;3.05;2.03;;;23.20;58.20;;;;;;5014135;28;20030;-38
2021/06/04 04:19:11;;;;;;;2.17;1.83;;;23.20;58.30;;;;;;5014802;28;20036;-39
2021/06/04 04:21:38;;;;;;;4.07;2.05;;;23.20;58.30;;;;;;5014243;28;20050;-41
2021/06/04 04:24:11;;;;;;;6.53;2.00;;;23.20;58.30;;;;;;5014754;28;20602;-39
2021/06/04 04:26:39;;;;;;;2.95;2.00;;;23.20;58.30;;;;;;5014692;28;20022;-41
2021/06/04 04:29:05;;;;;;;2.83;1.70;;;23.20;58.30;;;;;;5014713;28;20061;-38
2021/06/04 04:31:34;;;;;;;2.63;1.90;;;23.30;58.40;;;;;;5014819;28;20034;-40
2021/06/04 04:34:01;;;;;;;2.60;1.63;;;23.20;58.30;;;;;;5013489;28;20029;-39
2021/06/04 04:36:32;;;;;;;3.75;1.90;;;23.30;58.40;;;;;;5014856;28;20160;-39
2021/06/04 04:38:59;;;;;;;3.15;2.35;;;23.30;58.40;;;;;;5012084;28;20033;-38
2021/06/04 04:41:25;;;;;;;12.05;2.10;;;23.30;58.50;;;;;;5014927;28;20042;-39
2021/06/04 04:43:53;;;;;;;3.38;2.08;;;23.20;58.50;;;;;;5014043;28;20038;-39
2021/06/04 04:46:21;;;;;;;2.85;2.00;;;23.30;58.60;;;;;;5014274;28;20177;-38
2021/06/04 04:48:47;;;;;;;2.67;2.20;;;23.30;58.70;;;;;;5013844;28;20030;-39
2021/06/04 04:51:15;;;;;;;3.42;1.92;;;23.30;58.80;;;;;;5013833;28;20034;-39
2021/06/04 04:53:42;;;;;;;2.00;1.80;;;23.30;58.80;;;;;;5013432;28;20084;-39
2021/06/04 04:56:08;;;;;;;2.33;1.85;;;23.30;58.90;;;;;;5014227;28;20024;-39
2021/06/04 04:58:34;;;;;;;4.97;2.20;;;23.30;58.90;;;;;;5014773;28;20034;-38
2021/06/04 05:01:02;;;;;;;4.13;2.05;;;23.30;58.90;;;;;;5013554;28;20021;-39
2021/06/04 05:03:28;;;;;;;2.60;2.10;;;23.30;59.00;;;;;;5013629;28;20046;-38
2021/06/04 05:05:55;;;;;;;4.15;2.45;;;23.30;58.90;;;;;;5013405;28;20026;-39
2021/06/04 05:08:20;;;;;;;5.80;1.98;;;23.30;59.00;;;;;;5013757;28;20095;-38
2021/06/04 05:10:47;;;;;;;2.83;1.90;;;23.20;59.00;;;;;;5013289;28;20105;-38
2021/06/04 05:13:14;;;;;;;3.08;2.00;;;23.20;59.30;;;;;;5014296;28;20121;-39
2021/06/04 05:15:40;;;;;;;2.28;2.03;;;23.20;59.30;;;;;;5013090;28;20080;-42
2021/06/04 05:18:09;;;;;;;2.97;2.20;;;23.20;59.40;;;;;;5014062;28;20514;-39
2021/06/04 05:20:35;;;;;;;4.47;2.22;;;23.20;59.30;;;;;;5013827;28;20057;-39
2021/06/04 05:23:01;;;;;;;2.38;1.90;;;23.20;59.30;;;;;;5013103;28;20605;-39
2021/06/04 05:25:34;;;;;;;3.90;2.00;;;23.20;59.30;;;;;;5013243;28;20050;-38
2021/06/04 05:28:01;;;;;;;2.22;2.00;;;23.20;59.30;;;;;;5013571;28;20593;-38
2021/06/04 05:30:33;;;;;;;4.25;2.05;;;23.20;59.30;;;;;;5013961;28;20237;-39
2021/06/04 05:32:59;;;;;;;2.42;2.00;;;23.20;59.40;;;;;;5013290;28;20087;-39
2021/06/04 05:35:27;;;;;;;3.67;2.10;;;23.20;59.50;;;;;;5013137;28;20494;-38
2021/06/04 05:37:54;;;;;;;3.33;2.40;;;23.30;59.50;;;;;;5012919;28;20022;-39
2021/06/04 05:40:23;;;;;;;3.85;2.10;;;23.20;59.60;;;;;;5013746;28;20033;-38
2021/06/04 05:42:49;;;;;;;2.80;2.35;;;23.30;59.70;;;;;;5012667;28;20052;-39
2021/06/04 05:45:17;;;;;;;2.47;2.25;;;23.30;59.60;;;;;;5013384;28;20034;-38
2021/06/04 05:47:45;;;;;;;3.05;1.90;;;23.20;59.70;;;;;;5012528;28;20034;-39
2021/06/04 05:50:14;;;;;;;2.90;2.20;;;23.30;59.70;;;;;;5013062;28;20038;-38
2021/06/04 05:52:44;;;;;;;3.85;2.20;;;23.30;59.60;;;;;;5013228;28;20428;-41
2021/06/04 05:55:12;;;;;;;1.95;1.70;;;23.30;59.50;;;;;;5013745;28;20072;-39
2021/06/04 05:57:38;;;;;;;3.60;1.98;;;23.30;59.50;;;;;;5013018;28;20033;-40
2021/06/04 06:00:15;;;;;;;2.13;1.80;;;23.30;59.50;;;;;;5012505;28;20026;-39
2021/06/04 06:02:41;;;;;;;3.03;1.92;;;23.30;59.60;;;;;;5012219;28;20811;-38
2021/06/04 06:05:08;;;;;;;4.55;1.65;;;23.30;59.60;;;;;;5012434;28;20129;-39
2021/06/04 06:07:34;;;;;;;3.35;2.13;;;23.30;59.60;;;;;;5012696;28;20033;-38
2021/06/04 06:10:00;;;;;;;7.65;2.40;;;23.40;60.00;;;;;;5012298;28;20102;-38
2021/06/04 06:12:26;;;;;;;9.02;2.67;;;23.40;60.00;;;;;;5012894;28;20037;-38
2021/06/04 06:14:52;;;;;;;9.85;2.53;;;23.40;60.00;;;;;;5012051;28;20368;-39
2021/06/04 06:17:17;;;;;;;7.75;3.03;;;23.40;60.10;;;;;;5012994;28;20040;-39
2021/06/04 06:19:43;;;;;;;6.97;3.00;;;23.30;61.20;;;;;;5011327;28;20034;-41
2021/06/04 06:22:09;;;;;;;5.85;3.17;;;23.20;62.60;;;;;;5012868;28;20096;-39
2021/06/04 06:24:36;;;;;;;7.28;3.05;;;23.10;64.10;;;;;;5012643;28;20033;-39
2021/06/04 06:27:02;;;;;;;5.65;3.40;;;23.00;64.90;;;;;;5011784;28;20121;-39
2021/06/04 06:29:30;;;;;;;4.53;2.88;;;22.90;65.30;;;;;;5012188;28;20487;-39
2021/06/04 06:31:56;;;;;;;3.42;2.88;;;22.90;65.00;;;;;;5012129;28;20029;-39
2021/06/04 06:34:22;;;;;;;6.47;3.10;;;22.90;65.00;;;;;;5012318;28;20037;-39
2021/06/04 06:36:48;;;;;;;5.00;2.72;;;22.90;65.00;;;;;;5010945;28;20054;-40
2021/06/04 06:39:26;;;;;;;4.53;3.05;;;22.90;64.90;;;;;;5011351;28;20561;-39
2021/06/04 06:41:53;;;;;;;4.78;3.00;;;23.00;64.80;;;;;;5011467;28;20128;-39
2021/06/04 06:44:19;;;;;;;5.35;3.40;;;23.10;64.80;;;;;;5012449;28;20026;-39
2021/06/04 06:46:46;;;;;;;5.03;2.92;;;23.00;64.70;;;;;;5012055;28;20033;-39
2021/06/04 06:49:13;;;;;;;4.70;3.00;;;23.00;64.60;;;;;;5015418;28;20029;-39
2021/06/04 06:51:39;;;;;;;4.32;2.85;;;23.00;64.50;;;;;;5010300;28;20507;-39
2021/06/04 06:54:07;;;;;;;4.82;2.88;;;23.00;64.30;;;;;;5012001;28;20038;-39
2021/06/04 06:56:34;;;;;;;2.88;2.58;;;23.10;63.90;;;;;;5010534;28;20040;-39
2021/06/04 06:59:01;;;;;;;5.30;2.67;;;23.00;64.10;;;;;;5011450;28;20150;-38
2021/06/04 07:01:27;;;;;;;5.50;2.40;;;22.90;64.10;;;;;;5011609;28;20029;-39
2021/06/04 07:03:53;;;;;;;4.28;2.40;;;23.00;64.00;;;;;;5010621;28;20474;-39
2021/06/04 07:06:25;;;;;;;3.15;2.40;;;23.00;63.90;;;;;;5011913;28;20033;-38
2021/06/04 07:08:52;;;;;;;3.47;2.53;;;23.10;64.10;;;;;;5011154;28;20038;-36
2021/06/04 07:11:20;;;;;;;4.50;2.53;;;23.10;64.30;;;;;;5012045;28;20100;-39
2021/06/04 07:13:48;;;;;;;6.40;3.00;;;23.10;64.00;;;;;;5011216;28;20044;-39
2021/06/04 07:16:14;;;;;;;4.53;2.80;;;23.10;64.00;;;;;;5010763;28;20026;-38
2021/06/04 07:18:40;;;;;;;7.15;3.00;;;23.10;63.90;;;;;;5011786;28;20395;-39
2021/06/04 07:21:08;;;;;;;4.13;2.05;;;23.10;63.80;;;;;;5010802;28;20088;-38
2021/06/04 07:23:34;;;;;;;3.83;2.70;;;23.10;63.60;;;;;;5012191;28;20046;-39
2021/06/04 07:26:00;;;;;;;4.88;2.78;;;23.10;63.40;;;;;;5024772;28;20399;-38
2021/06/04 07:28:28;;;;;;;3.67;2.40;;;23.10;63.00;;;;;;5013682;28;20033;-39
2021/06/04 07:30:56;;;;;;;3.13;2.20;;;23.00;63.10;;;;;;5013477;28;20041;-41
2021/06/04 07:33:26;;;;;;;3.35;2.60;;;23.10;62.90;;;;;;5016496;28;20127;-38
2021/06/04 07:35:54;;;;;;;3.15;2.40;;;23.10;63.00;;;;;;5014648;28;20033;-39
2021/06/04 07:38:21;;;;;;;5.07;2.70;;;23.10;63.20;;;;;;5011516;28;20032;-38
2021/06/04 07:40:46;;;;;;;4.60;2.75;;;23.10;63.40;;;;;;5018612;28;20029;-40
2021/06/04 07:43:16;;;;;;;5.30;2.50;;;23.10;63.20;;;;;;5014587;28;20045;-39
2021/06/04 07:45:44;;;;;;;2.40;1.98;;;23.20;63.30;;;;;;5022015;28;20533;-40
2021/06/04 07:48:13;;;;;;;3.63;2.03;;;23.20;63.10;;;;;;5011455;28;20029;-39
2021/06/04 07:50:43;;;;;;;5.57;2.65;;;23.20;62.90;;;;;;5003530;28;20026;-39
2021/06/04 07:53:11;;;;;;;3.83;2.42;;;23.20;62.60;;;;;;5011357;28;20061;-39
2021/06/04 07:55:37;;;;;;;3.85;2.38;;;23.20;62.80;;;;;;5011309;28;20084;-39
2021/06/04 08:01:20;;;;;;;2.58;2.10;;;23.20;62.20;;;;;;5005019;28;20491;-39
2021/06/04 08:04:06;;;;;;;3.10;2.10;;;23.20;62.00;;;;;;5016765;28;20056;-41
2021/06/04 08:06:41;;;;;;;5.22;2.20;;;23.20;61.90;;;;;;5007352;28;20125;-39
2021/06/04 08:09:09;;;;;;;2.38;1.92;;;23.20;61.80;;;;;;5010523;28;20037;-39
2021/06/04 08:11:39;;;;;;;3.47;2.35;;;23.20;61.70;;;;;;5011720;28;20069;-39
2021/06/04 08:14:11;;;;;;;3.65;2.50;;;23.20;61.60;;;;;;5011380;28;20033;-39
2021/06/04 08:16:40;;;;;;;2.70;1.90;;;23.20;61.70;;;;;;5011345;28;20092;-39
2021/06/04 08:19:05;;;;;;;5.15;2.53;;;23.30;61.70;;;;;;5010660;28;20026;-39
2021/06/04 08:21:37;;;;;;;2.90;2.10;;;23.30;61.50;;;;;;5011157;28;20038;-39
2021/06/04 08:24:04;;;;;;;3.55;2.17;;;23.10;61.80;;;;;;5010801;28;20111;-39
2021/06/04 08:26:32;;;;;;;4.57;2.17;;;23.20;61.50;;;;;;5011629;28;20033;-39
2021/06/04 08:28:59;;;;;;;3.15;2.00;;;23.30;61.40;;;;;;5014212;28;20040;-39
2021/06/04 08:31:25;;;;;;;5.38;1.88;;;23.40;61.30;;;;;;5014471;28;20401;-39
2021/06/04 08:33:52;;;;;;;2.35;2.15;;;23.40;61.20;;;;;;5014105;28;20471;-39
2021/06/04 08:36:22;;;;;;;4.50;2.50;;;23.40;61.20;;;;;;5014743;28;20034;-39
2021/06/04 08:38:48;;;;;;;3.67;1.98;;;23.40;61.20;;;;;;5013608;28;20022;-41
2021/06/04 08:41:34;;;;;;;5.43;2.85;;;23.40;61.00;;;;;;5015143;28;20104;-39
2021/06/04 08:44:22;;;;;;;3.55;2.03;;;23.40;61.10;;;;;;5013501;28;20029;-39
2021/06/04 08:47:00;;;;;;;2.28;2.08;;;23.40;61.00;;;;;;5011617;28;20105;-41
2021/06/04 08:49:58;;;;;;;2.65;1.92;;;23.50;61.10;;;;;;5009838;28;20026;-39
2021/06/04 08:52:27;;;;;;;3.22;2.33;;;23.50;60.80;;;;;;5013840;28;20104;-39
2021/06/04 08:55:12;;;;;;;4.18;2.28;;;23.50;60.90;;;;;;5012737;28;20426;-39
2021/06/04 08:57:44;;;;;;;3.92;2.30;;;23.50;60.90;;;;;;5021356;28;20034;-40
2021/06/04 09:00:22;;;;;;;4.18;2.30;;;23.50;61.50;;;;;;5022409;28;20471;-39
2021/06/04 09:02:53;;;;;;;3.45;2.20;;;23.50;60.80;;;;;;5018645;28;20467;-41
2021/06/04 09:05:22;;;;;;;;;;;23.60;60.90;;;;;;5021171;28;20030;-39
2021/06/04 09:07:49;;;;;;;3.90;2.10;;;23.60;60.70;;;;;;5008385;28;19910;-40
2021/06/04 09:10:17;;;;;;;3.10;2.30;;;23.60;60.90;;;;;;5014486;28;20096;-38
2021/06/04 09:13:10;;;;;;;3.10;2.25;;;23.60;60.80;;;;;;5014057;28;20030;-38
2021/06/04 09:15:38;;;;;;;7.60;3.28;;;23.60;60.90;;;;;;5018042;28;20029;-38
2021/06/04 09:18:22;;;;;;;3.60;2.30;;;23.60;60.90;;;;;;5013153;28;20442;-38
2021/06/04 09:21:00;;;;;;;3.55;2.33;;;23.60;60.90;;;;;;5018024;28;20037;-40
2021/06/04 09:23:35;;;;;;;2.28;1.83;;;23.60;61.00;;;;;;5005349;28;20419;-38
2021/06/04 09:26:01;;;;;;;3.95;2.78;;;23.60;61.00;;;;;;5012664;28;20487;-38
2021/06/04 09:28:37;;;;;;;4.03;2.10;;;23.60;60.90;;;;;;5019577;28;20080;-38
2021/06/04 09:31:24;;;;;;;5.05;2.25;;;23.60;60.80;;;;;;5012068;28;20033;-38
2021/06/04 09:33:56;;;;;;;3.58;2.15;;;23.60;60.80;;;;;;5013300;28;20022;-39
2021/06/04 09:36:25;;;;;;;3.53;2.40;;;23.60;60.70;;;;;;5013299;28;20387;-38
2021/06/04 09:39:02;;;;;;;4.13;3.00;;;23.70;60.70;;;;;;5011728;28;20033;-38
2021/06/04 09:41:43;;;;;;;6.15;2.08;;;23.70;60.40;;;;;;5013563;28;20029;-38
2021/06/04 09:44:18;;;;;;;4.57;2.50;;;23.70;60.60;;;;;;5012582;28;20026;-40
2021/06/04 09:47:11;;;;;;;5.38;2.40;;;23.70;60.70;;;;;;5016243;28;20165;-38
2021/06/04 09:49:46;;;;;;;3.58;2.10;;;23.70;60.50;;;;;;5013445;28;20096;-38
2021/06/04 09:52:30;;;;;;;4.00;1.85;;;23.70;60.60;;;;;;5012666;28;20061;-38
2021/06/04 09:55:19;;;;;;;3.20;1.77;;;23.70;60.60;;;;;;5012563;28;20034;-38
2021/06/04 09:58:06;;;;;;;3.42;2.00;;;23.70;60.60;;;;;;5008690;28;20068;-38
2021/06/04 10:00:54;;;;;;;3.17;1.98;;;23.70;60.50;;;;;;5006014;28;20041;-39
2021/06/04 10:03:20;;;;;;;2.80;2.05;;;23.80;60.50;;;;;;5022406;28;20038;-38
2021/06/04 10:05:47;;;;;;;3.78;2.03;;;23.70;60.60;;;;;;5023215;28;20080;-38
2021/06/04 10:08:17;;;;;;;5.82;1.95;;;23.70;60.60;;;;;;5008364;28;20065;-38
2021/06/04 10:10:43;;;;;;;4.22;2.08;;;23.70;60.60;;;;;;5013096;28;20422;-38
2021/06/04 10:13:35;;;;;;;3.58;2.03;;;23.70;60.60;;;;;;5012097;28;20033;-38
2021/06/04 10:16:03;;;;;;;4.43;2.00;;;23.70;60.80;;;;;;5011589;28;20383;-39
2021/06/04 10:18:36;;;;;;;2.70;1.88;;;23.70;60.60;;;;;;5012936;28;20026;-38
2021/06/04 10:21:18;;;;;;;3.53;1.77;;;23.80;60.90;;;;;;5012475;28;20041;-38
2021/06/04 10:23:53;;;;;;;2.83;1.85;;;23.80;60.80;;;;;;5012611;28;20073;-39
2021/06/04 10:26:27;;;;;;;2.55;1.90;;;23.80;60.80;;;;;;5015759;28;20065;-39
2021/06/04 10:28:55;;;;;;;2.33;1.98;;;23.80;60.80;;;;;;5011269;28;20483;-39
2021/06/04 10:31:31;;;;;;;2.80;1.77;;;23.90;60.90;;;;;;5012572;28;20081;-38
2021/06/04 10:34:06;;;;;;;3.85;1.95;;;23.80;61.60;;;;;;5012314;28;20037;-39
2021/06/04 10:36:39;;;;;;;3.08;2.05;;;23.90;60.80;;;;;;5014895;28;20033;-39
2021/06/04 10:39:41;;;;;;;2.92;1.90;;;23.90;61.10;;;;;;5011240;28;20356;-38
2021/06/04 10:42:27;;;;;;;2.78;1.67;;;23.80;60.90;;;;;;5009356;28;20136;-38
2021/06/04 10:45:08;;;;;;;2.75;1.63;;;23.80;60.90;;;;;;5016760;28;20026;-40
2021/06/04 10:48:03;;;;;;;3.35;2.08;;;23.80;60.90;;;;;;5012330;28;20045;-38
2021/06/04 10:50:38;;;;;;;2.92;1.95;;;23.90;60.90;;;;;;5011169;28;20467;-38
2021/06/04 10:53:14;;;;;;;6.53;2.13;;;23.90;60.90;;;;;;5010959;28;20064;-38
2021/06/04 10:56:01;;;;;;;2.45;1.80;;;23.80;60.90;;;;;;5013700;28;20053;-38
2021/06/04 10:58:51;;;;;;;3.00;1.67;;;23.90;60.90;;;;;;5012821;28;20026;-38
2021/06/04 11:01:21;;;;;;;5.22;2.05;;;23.90;60.90;;;;;;5007271;28;20026;-38
2021/06/04 11:03:55;;;;;;;4.68;1.98;;;23.80;60.90;;;;;;5012507;28;20026;-39
2021/06/04 11:06:59;;;;;;;2.38;1.75;;;23.80;60.70;;;;;;5014731;28;20050;-38
2021/06/04 11:09:43;;;;;;;2.75;1.98;;;23.90;60.70;;;;;;5003650;28;20065;-38
2021/06/04 11:12:36;;;;;;;2.90;1.92;;;23.90;60.70;;;;;;5011166;28;20502;-38
2021/06/04 11:15:32;;;;;;;2.63;1.90;;;23.90;61.00;;;;;;5005252;28;20034;-39
2021/06/04 11:18:10;;;;;;;3.17;1.80;;;23.90;61.40;;;;;;5008186;28;20022;-39
2021/06/04 11:20:47;;;;;;;5.45;1.70;;;23.80;61.30;;;;;;5005959;28;20058;-39
2021/06/04 11:23:28;;;;;;;3.40;1.98;;;23.80;61.20;;;;;;5006679;28;20140;-43
2021/06/04 11:25:59;;;;;;;5.13;2.33;;;23.80;61.40;;;;;;5010100;28;20471;-41
2021/06/04 11:28:41;;;;;;;4.35;2.30;;;23.80;62.00;;;;;;5011873;28;20093;-40
2021/06/04 11:31:22;;;;;;;5.57;2.13;;;23.80;62.60;;;;;;5011261;28;20034;-38
2021/06/04 11:33:52;;;;;;;2.87;2.10;;;23.80;63.30;;;;;;5011043;28;20403;-39
2021/06/04 11:36:21;;;;;;;3.88;2.17;;;23.80;63.20;;;;;;5013786;28;20122;-38
2021/06/04 11:39:07;;;;;;;3.97;2.17;;;23.80;63.10;;;;;;5017084;28;20018;-38
2021/06/04 11:41:32;;;;;;;5.88;2.25;;;23.80;63.10;;;;;;5011561;28;20395;-39
2021/06/04 11:44:25;;;;;;;3.80;2.10;;;23.80;63.50;;;;;;5010958;28;20048;-38
2021/06/04 11:47:12;;;;;;;4.50;2.42;;;23.70;64.10;;;;;;5006303;28;20088;-40
2021/06/04 11:49:56;;;;;;;6.13;2.05;;;23.80;63.90;;;;;;5010324;28;20029;-38
2021/06/04 11:52:40;;;;;;;3.92;2.20;;;23.80;63.90;;;;;;5011399;28;20057;-40
2021/06/04 11:55:35;;;;;;;4.95;2.53;;;23.80;64.10;;;;;;5014484;28;20064;-38
2021/06/04 11:58:16;;;;;;;4.53;2.13;;;23.80;64.40;;;;;;5012520;28;20026;-38
2021/06/04 12:00:45;;;;;;;4.82;1.98;;;23.80;64.50;;;;;;5005270;28;20042;-39
2021/06/04 12:03:13;;;;;;;4.30;2.47;;;23.80;64.50;;;;;;5012891;28;20526;-39
2021/06/04 12:05:44;;;;;;;7.78;2.92;;;23.80;64.50;;;;;;5015678;28;20514;-38
2021/06/04 12:08:25;;;;;;;3.72;2.20;;;23.80;64.60;;;;;;5013127;28;20105;-38
2021/06/04 12:10:53;;;;;;;4.03;2.00;;;23.80;64.50;;;;;;5015056;28;20026;-38
2021/06/04 12:13:48;;;;;;;4.38;2.60;;;23.80;64.30;;;;;;5015007;28;20030;-38
2021/06/04 12:16:24;;;;;;;5.43;2.10;;;23.80;64.40;;;;;;5018419;28;20105;-38
2021/06/04 12:18:50;;;;;;;4.35;2.15;;;23.80;64.20;;;;;;5015318;28;20472;-33
2021/06/04 12:21:37;;;;;;;6.57;3.15;;;23.80;64.30;;;;;;5014324;28;20144;-33
2021/06/04 12:24:24;;;;;;;2.88;2.20;;;23.80;64.10;;;;;;5014533;28;20053;-33
2021/06/04 12:27:10;;;;;;;4.07;2.30;;;23.80;64.20;;;;;;4999819;28;20037;-34
2021/06/04 12:29:52;;;;;;;4.65;2.45;;;23.80;64.30;;;;;;5015275;28;20101;-33
2021/06/04 12:32:38;;;;;;;5.97;2.55;;;23.80;64.30;;;;;;5046132;28;20045;-41
2021/06/04 12:35:07;;;;;;;5.63;2.25;;;23.80;64.10;;;;;;5013780;28;20403;-41
2021/06/04 12:37:39;;;;;;;4.75;2.33;;;23.80;64.00;;;;;;5029825;28;20034;-40
2021/06/04 12:40:08;;;;;;;6.20;2.50;;;23.80;64.00;;;;;;5013608;28;20038;-39
2021/06/04 12:42:47;;;;;;;5.57;2.33;;;23.80;64.10;;;;;;5014575;28;20476;-40
2021/06/04 12:45:16;;;;;;;7.57;2.42;;;23.80;64.20;;;;;;5013420;28;20022;-39
2021/06/04 12:47:50;;;;;;;9.55;2.83;;;23.70;63.90;;;;;;5014730;28;20076;-41
2021/06/04 12:50:27;;;;;;;7.53;2.30;;;23.70;63.80;;;;;;5013683;28;20188;-45
2021/06/04 12:53:08;;;;;;;3.97;2.45;;;23.80;63.70;;;;;;5015134;28;20495;-41
2021/06/04 12:55:35;;;;;;;6.03;2.22;;;23.80;63.60;;;;;;5014381;28;20069;-41
2021/06/04 12:58:24;;;;;;;6.47;2.15;;;23.80;63.50;;;;;;5013036;28;20045;-45
2021/06/04 13:00:50;;;;;;;7.60;2.65;;;23.80;63.50;;;;;;5014340;28;20084;-42
2021/06/04 13:03:23;;;;;;;5.25;2.22;;;23.80;63.40;;;;;;5013112;28;20042;-41
2021/06/04 13:05:50;;;;;;;5.63;2.08;;;23.90;63.50;;;;;;5014217;28;20026;-41
2021/06/04 13:08:20;;;;;;;4.13;2.10;;;23.90;63.40;;;;;;5008376;28;20255;-46
2021/06/04 13:10:55;;;;;;;4.88;2.08;;;23.90;63.30;;;;;;5046073;28;20030;-41
2021/06/04 13:13:29;;;;;;;5.28;2.28;;;23.90;63.30;;;;;;5012576;28;20034;-41
2021/06/04 13:15:58;;;;;;;5.63;2.40;;;23.90;63.30;;;;;;5013172;28;20088;-50
2021/06/04 13:18:25;;;;;;;6.47;2.33;;;23.90;63.30;;;;;;5023354;28;20051;-41
2021/06/04 13:21:11;;;;;;;5.68;2.28;;;23.90;63.20;;;;;;5014165;28;20037;-42
2021/06/04 13:23:38;;;;;;;4.03;2.38;;;23.90;63.30;;;;;;5010625;28;20120;-41
2021/06/04 13:26:25;;;;;;;5.65;2.25;;;23.90;63.30;;;;;;5014236;28;20061;-41
2021/06/04 13:28:56;;;;;;;5.78;2.13;;;23.90;63.20;;;;;;5014824;28;20040;-41
2021/06/04 13:31:30;;;;;;;5.78;2.28;;;23.90;63.40;;;;;;5013235;28;20123;-43
2021/06/04 13:34:00;;;;;;;4.40;2.42;;;23.90;63.40;;;;;;5013238;28;20038;-49